createdAt,value
2023-01-19T00:01:43.616Z,1.72
2023-01-19T00:05:45.779Z,1.74
2023-01-19T00:09:47.661Z,1.68
2023-01-19T00:13:50.855Z,1.80
2023-01-19T00:17:53.038Z,1.72
2023-01-19T00:21:55.345Z,1.73
2023-01-19T00:25:57.506Z,1.77
2023-01-19T00:29:59.574Z,1.75
2023-01-19T00:34:01.345Z,1.72
2023-01-19T00:38:03.933Z,1.82
2023-01-19T00:42:24.605Z,1.82
2023-01-19T00:46:27.157Z,1.84
2023-01-19T00:50:30.815Z,1.85
2023-01-19T00:54:32.556Z,1.86
2023-01-19T00:58:34.640Z,1.93
2023-01-19T01:02:37.560Z,1.97
2023-01-19T01:06:39.370Z,1.90
2023-01-19T01:10:41.308Z,1.82
2023-01-19T01:14:43.402Z,1.77
2023-01-19T01:18:46.548Z,1.60
2023-01-19T01:22:51.407Z,1.58
2023-01-19T01:26:53.252Z,1.47
2023-01-19T01:30:57.161Z,1.26
2023-01-19T01:34:59.103Z,1.17
2023-01-19T01:39:01.285Z,1.07
2023-01-19T01:43:03.666Z,1.03
2023-01-19T01:47:05.882Z,1.11
2023-01-19T01:51:25.408Z,1.19
2023-01-19T01:55:29.628Z,1.20
2023-01-19T01:59:39.951Z,1.30
2023-01-19T02:03:42.143Z,1.28
2023-01-19T02:08:22.992Z,1.32
2023-01-19T02:12:43.539Z,1.40
2023-01-19T02:16:46.245Z,1.53
2023-01-19T02:20:56.769Z,1.52
2023-01-19T02:24:58.926Z,1.65
2023-01-19T02:29:04.411Z,1.65
2023-01-19T02:33:07.146Z,1.66
2023-01-19T02:37:12.144Z,1.60
2023-01-19T02:41:20.094Z,1.63
2023-01-19T02:45:23.100Z,1.63
2023-01-19T02:49:28.960Z,1.66
2023-01-19T02:53:42.290Z,1.68
2023-01-19T02:58:03.344Z,1.70
2023-01-19T03:02:19.491Z,1.69
2023-01-19T03:06:44.744Z,1.71
2023-01-19T03:11:11.575Z,1.77
2023-01-19T03:15:54.335Z,1.80
2023-01-19T03:19:57.954Z,1.81
2023-01-19T03:24:03.423Z,1.77
2023-01-19T03:28:05.833Z,1.82
2023-01-19T03:32:13.829Z,1.87
2023-01-19T03:36:25.588Z,1.85
2023-01-19T03:40:30.953Z,1.88
2023-01-19T03:44:37.267Z,1.91
2023-01-19T03:48:39.443Z,1.88
2023-01-19T03:52:41.604Z,1.89
2023-01-19T03:56:44.635Z,1.94
2023-01-19T04:00:46.623Z,2.03
2023-01-19T04:04:48.665Z,1.97
2023-01-19T04:08:51.942Z,2.00
2023-01-19T04:12:59.611Z,2.03
2023-01-19T04:17:02.261Z,1.98
2023-01-19T04:21:06.836Z,1.97
2023-01-19T04:25:09.814Z,1.91
2023-01-19T04:29:11.812Z,1.88
2023-01-19T04:33:13.691Z,2.09
2023-01-19T04:37:15.722Z,2.02
2023-01-19T04:41:18.305Z,2.00
2023-01-19T04:45:20.194Z,2.09
2023-01-19T04:49:22.208Z,2.13
2023-01-19T04:53:24.394Z,2.09
2023-01-19T04:57:26.404Z,2.13
2023-01-19T05:01:28.613Z,2.06
2023-01-19T05:05:30.835Z,2.09
2023-01-19T05:09:32.792Z,2.11
2023-01-19T05:13:34.767Z,2.06
2023-01-19T05:17:37.177Z,2.10
2023-01-19T05:21:39.324Z,2.08
2023-01-19T05:25:43.003Z,2.06
2023-01-19T05:29:44.978Z,1.96
2023-01-19T05:33:47.419Z,1.94
2023-01-19T05:37:49.371Z,1.98
2023-01-19T05:41:51.357Z,2.01
2023-01-19T05:45:53.462Z,1.93
2023-01-19T05:49:55.417Z,1.89
2023-01-19T05:53:57.402Z,1.97
2023-01-19T05:57:59.376Z,2.00
2023-01-19T06:02:01.509Z,2.00
2023-01-19T06:06:03.813Z,1.99
2023-01-19T06:10:06.302Z,1.87
2023-01-19T06:14:09.784Z,2.00
2023-01-19T06:18:12.639Z,1.93
2023-01-19T06:22:14.534Z,1.93
2023-01-19T06:26:16.515Z,1.84
2023-01-19T06:30:18.786Z,1.79
2023-01-19T06:34:20.948Z,2.05
2023-01-19T06:38:23.253Z,1.95
2023-01-19T06:42:25.355Z,1.98
2023-01-19T06:46:27.683Z,2.00
2023-01-19T06:50:29.764Z,1.98
2023-01-19T06:54:31.865Z,1.94
2023-01-19T06:58:34.947Z,2.05
2023-01-19T07:02:37.113Z,2.07
2023-01-19T07:06:39.358Z,2.06
2023-01-19T07:11:26.139Z,2.06
2023-01-19T07:15:03.698Z,2.10
2023-01-19T07:19:05.758Z,2.12
2023-01-19T07:23:07.783Z,2.07
2023-01-19T07:27:11.584Z,2.09
2023-01-19T07:31:15.452Z,2.13
2023-01-19T07:35:17.608Z,2.13
2023-01-19T07:39:19.569Z,2.14
2023-01-19T07:43:21.558Z,2.19
2023-01-19T07:47:23.460Z,2.14
2023-01-19T07:51:25.348Z,2.19
2023-01-19T07:55:27.377Z,2.24
2023-01-19T07:59:30.338Z,2.28
2023-01-19T08:03:33.578Z,2.29
2023-01-19T08:07:35.747Z,2.31
2023-01-19T08:11:37.979Z,2.39
2023-01-19T08:15:39.978Z,2.31
2023-01-19T08:19:42.912Z,2.35
2023-01-19T08:23:45.776Z,2.29
2023-01-19T08:27:47.854Z,2.29
2023-01-19T08:31:50.204Z,2.31
2023-01-19T08:35:53.552Z,2.29
2023-01-19T08:39:55.513Z,2.31
2023-01-19T08:43:57.633Z,2.30
2023-01-19T08:48:00.432Z,2.20
2023-01-19T08:52:03.136Z,2.26
2023-01-19T08:56:07.360Z,2.28
2023-01-19T09:00:11.105Z,2.34
2023-01-19T09:04:13.215Z,2.39
2023-01-19T09:08:15.723Z,2.36
2023-01-19T09:12:17.884Z,2.28
2023-01-19T09:16:19.974Z,2.26
2023-01-19T09:20:23.491Z,2.25
2023-01-19T09:24:25.598Z,2.23
2023-01-19T09:28:28.702Z,2.28
2023-01-19T09:32:30.889Z,2.31
2023-01-19T09:36:32.873Z,2.20
2023-01-19T09:40:44.099Z,2.28
2023-01-19T09:44:49.254Z,2.33
2023-01-19T09:48:53.366Z,2.34
2023-01-19T09:53:01.477Z,2.39
2023-01-19T09:57:10.952Z,2.46
2023-01-19T10:01:32.743Z,2.37
2023-01-19T10:05:45.586Z,2.32
2023-01-19T10:10:06.303Z,2.29
2023-01-19T10:14:20.941Z,2.30
2023-01-19T10:18:26.479Z,2.37
2023-01-19T10:22:29.036Z,2.37
2023-01-19T10:26:39.778Z,2.44
2023-01-19T10:30:44.580Z,2.53
2023-01-19T10:34:48.134Z,2.54
2023-01-19T10:38:50.950Z,2.63
2023-01-19T10:42:53.120Z,2.65
2023-01-19T10:46:57.492Z,2.60
2023-01-19T10:51:04.232Z,2.57
2023-01-19T10:55:08.217Z,2.56
2023-01-19T10:59:29.950Z,2.55
2023-01-19T11:03:32.266Z,2.63
2023-01-19T11:07:35.077Z,2.64
2023-01-19T11:11:45.767Z,2.81
2023-01-19T11:15:54.649Z,2.63
2023-01-19T11:20:01.016Z,2.61
2023-01-19T11:24:09.295Z,2.66
2023-01-19T11:28:20.651Z,2.71
2023-01-19T11:32:26.787Z,2.65
2023-01-19T11:36:32.035Z,2.61
2023-01-19T11:40:35.377Z,2.63
2023-01-19T11:44:46.805Z,2.64
2023-01-19T11:49:08.207Z,2.71
2023-01-19T11:53:28.275Z,2.66
2023-01-19T11:57:30.217Z,2.73
2023-01-19T12:01:35.591Z,2.74
2023-01-19T12:05:43.147Z,2.78
2023-01-19T12:09:53.721Z,2.73
2023-01-19T12:13:55.688Z,2.65
2023-01-19T12:18:01.015Z,2.66
2023-01-19T12:22:04.638Z,2.59
2023-01-19T12:26:29.392Z,2.57
2023-01-19T12:30:31.627Z,2.59
2023-01-19T12:34:51.847Z,2.58
2023-01-19T12:38:56.256Z,2.59
2023-01-19T12:43:04.176Z,2.73
2023-01-19T12:47:15.231Z,2.65
2023-01-19T12:51:26.599Z,2.64
2023-01-19T12:55:35.477Z,2.59
2023-01-19T12:59:39.403Z,2.63
2023-01-19T13:04:25.434Z,2.63
2023-01-19T13:08:48.606Z,2.47
2023-01-19T13:13:25.791Z,2.47
2023-01-19T13:17:34.025Z,2.48
2023-01-19T13:21:45.604Z,2.58
2023-01-19T13:25:51.535Z,2.47
2023-01-19T13:29:53.619Z,2.47
2023-01-19T13:33:58.214Z,2.72
2023-01-19T13:38:01.198Z,2.48
2023-01-19T13:42:08.957Z,2.46
2023-01-19T13:46:13.396Z,2.45
2023-01-19T13:50:28.755Z,2.33
2023-01-19T13:54:30.768Z,2.43
2023-01-19T13:58:32.655Z,2.38
2023-01-19T14:02:34.794Z,2.40
2023-01-19T14:06:44.641Z,2.42
2023-01-19T14:10:54.554Z,2.46
2023-01-19T14:14:56.643Z,2.53
2023-01-19T14:19:00.814Z,2.42
2023-01-19T14:23:03.589Z,2.44
2023-01-19T14:27:18.215Z,2.38
2023-01-19T14:31:23.357Z,2.36
2023-01-19T14:35:25.555Z,2.37
2023-01-19T14:39:31.034Z,2.34
2023-01-19T14:43:33.138Z,2.34
2023-01-19T14:47:38.696Z,2.31
2023-01-19T14:51:44.833Z,2.32
2023-01-19T14:55:55.919Z,2.32
2023-01-19T14:59:58.049Z,2.38
2023-01-19T15:04:00.254Z,2.31
2023-01-19T15:08:04.175Z,2.32
2023-01-19T15:12:07.266Z,2.25
2023-01-19T15:16:09.354Z,2.24
2023-01-19T15:20:17.373Z,2.27
2023-01-19T15:24:19.569Z,2.24
2023-01-19T15:28:21.574Z,2.23
2023-01-19T15:32:23.252Z,2.21
2023-01-19T15:36:25.343Z,2.13
2023-01-19T15:40:28.080Z,2.23
2023-01-19T15:44:30.318Z,2.17
2023-01-19T15:48:32.509Z,2.19
2023-01-19T15:52:34.499Z,2.22
2023-01-19T15:56:36.444Z,2.22
2023-01-19T16:00:38.436Z,2.23
2023-01-19T16:04:40.479Z,2.21
2023-01-19T16:08:42.800Z,2.19
2023-01-19T16:12:45.530Z,2.22
2023-01-19T16:16:47.702Z,2.17
2023-01-19T16:20:49.723Z,2.12
2023-01-19T16:24:53.323Z,2.09
2023-01-19T16:29:01.023Z,2.03
2023-01-19T16:33:03.251Z,1.93
2023-01-19T16:37:05.282Z,1.97
2023-01-19T16:41:10.223Z,1.91
2023-01-19T16:45:12.332Z,1.92
2023-01-19T16:49:20.012Z,1.97
2023-01-19T16:53:22.217Z,1.96
2023-01-19T16:57:24.570Z,1.96
2023-01-19T17:01:28.843Z,1.93
2023-01-19T17:05:30.900Z,1.97
2023-01-19T17:09:34.017Z,1.91
2023-01-19T17:13:36.174Z,1.94
2023-01-19T17:17:38.192Z,1.80
2023-01-19T17:21:40.494Z,1.82
2023-01-19T17:25:42.491Z,1.85
2023-01-19T17:29:44.443Z,1.89
2023-01-19T17:33:48.510Z,1.89
2023-01-19T17:37:54.055Z,1.85
2023-01-19T17:41:56.108Z,1.82
2023-01-19T17:45:59.842Z,1.83
2023-01-19T17:50:01.987Z,1.74
2023-01-19T17:54:04.776Z,1.69
2023-01-19T17:58:06.961Z,1.80
2023-01-19T18:02:09.968Z,1.78
2023-01-19T18:06:12.521Z,1.82
2023-01-19T18:10:15.254Z,1.76
2023-01-19T18:14:17.698Z,1.83
2023-01-19T18:18:19.867Z,1.81
2023-01-19T18:22:22.478Z,1.66
2023-01-19T18:26:24.645Z,1.66
2023-01-19T18:30:26.719Z,1.57
2023-01-19T18:34:28.813Z,1.62
2023-01-19T18:38:30.766Z,1.61
2023-01-19T18:42:34.058Z,1.60
2023-01-19T18:46:37.252Z,1.54
2023-01-19T18:50:39.629Z,1.54
2023-01-19T18:54:41.815Z,1.67
2023-01-19T18:58:44.230Z,1.53
2023-01-19T19:02:46.280Z,1.53
2023-01-19T19:06:48.438Z,1.49
2023-01-19T19:10:50.642Z,1.51
2023-01-19T19:14:52.893Z,1.48
2023-01-19T19:18:55.182Z,1.46
2023-01-19T19:22:57.419Z,1.50
2023-01-19T19:26:59.359Z,1.43
2023-01-19T19:31:08.770Z,1.45
2023-01-19T19:35:12.502Z,1.48
2023-01-19T19:39:14.761Z,1.43
2023-01-19T19:43:16.945Z,1.48
2023-01-19T19:47:19.316Z,1.34
2023-01-19T19:51:27.102Z,1.28
2023-01-19T19:55:29.241Z,1.24
2023-01-19T19:59:31.319Z,1.22
2023-01-19T20:03:33.277Z,1.22
2023-01-19T20:07:35.055Z,1.30
2023-01-19T20:11:37.306Z,1.18
2023-01-19T20:15:39.695Z,1.21
2023-01-19T20:19:41.662Z,1.20
2023-01-19T20:23:45.151Z,1.21
2023-01-19T20:27:47.633Z,1.10
2023-01-19T20:31:52.999Z,1.19
2023-01-19T20:35:55.368Z,1.13
2023-01-19T20:39:57.484Z,1.14
2023-01-19T20:43:59.618Z,1.13
2023-01-19T20:48:01.708Z,1.16
2023-01-19T20:52:04.128Z,1.23
2023-01-19T20:56:09.968Z,1.12
2023-01-19T21:00:12.421Z,1.15
2023-01-19T21:04:14.801Z,0.95
2023-01-19T21:08:18.233Z,1.14
2023-01-19T21:12:21.417Z,1.17
2023-01-19T21:16:25.946Z,1.05
2023-01-19T21:20:31.489Z,1.06
2023-01-19T21:24:33.720Z,1.07
2023-01-19T21:28:35.757Z,0.92
2023-01-19T21:32:38.325Z,0.86
2023-01-19T21:36:40.810Z,0.83
2023-01-19T21:40:43.085Z,0.84
2023-01-19T21:44:45.291Z,0.81
2023-01-19T21:48:47.655Z,0.83
2023-01-19T21:52:49.846Z,0.86
2023-01-19T21:56:51.964Z,0.91
2023-01-19T22:01:05.554Z,0.88
2023-01-19T22:05:08.134Z,0.80
2023-01-19T22:09:10.159Z,0.85
2023-01-19T22:13:12.199Z,0.83
2023-01-19T22:17:14.108Z,0.86
2023-01-19T22:21:18.740Z,0.88
2023-01-19T22:25:24.695Z,0.84
2023-01-19T22:29:26.728Z,0.86
2023-01-19T22:33:28.634Z,0.85
2023-01-19T22:37:35.021Z,0.77
2023-01-19T22:41:40.712Z,0.75
2023-01-19T22:45:43.260Z,0.70
2023-01-19T22:49:45.268Z,0.61
2023-01-19T22:53:47.585Z,0.58
2023-01-19T22:57:49.267Z,0.52
2023-01-19T23:01:51.468Z,0.55
2023-01-19T23:05:53.512Z,0.46
2023-01-19T23:09:55.533Z,0.54
2023-01-19T23:13:58.266Z,0.50
2023-01-19T23:18:00.251Z,0.49
2023-01-19T23:22:02.204Z,0.49
2023-01-19T23:26:09.658Z,0.47
2023-01-19T23:30:11.728Z,0.52
2023-01-19T23:34:14.459Z,0.55
2023-01-19T23:38:16.448Z,0.69
2023-01-19T23:42:18.439Z,0.67
2023-01-19T23:46:20.948Z,0.49
2023-01-19T23:50:22.932Z,0.53
2023-01-19T23:54:25.039Z,0.58
2023-01-19T23:58:27.013Z,0.47
